sensor_id;sensor_type;location;lat;lon;timestamp;temperature;humidity
12123;DHT22;6125;59.628;17.852;2023-04-09T00:00:14;0.30;99.90
12123;DHT22;6125;59.628;17.852;2023-04-09T00:02:41;0.30;99.90
12123;DHT22;6125;59.628;17.852;2023-04-09T00:05:08;0.20;99.90
12123;DHT22;6125;59.628;17.852;2023-04-09T00:07:36;0.20;99.90
12123;DHT22;6125;59.628;17.852;2023-04-09T00:10:05;0.10;99.90
12123;DHT22;6125;59.628;17.852;2023-04-09T00:12:32;0.10;99.90
12123;DHT22;6125;59.628;17.852;2023-04-09T00:14:59;0.10;99.90
12123;DHT22;6125;59.628;17.852;2023-04-09T00:17:26;0.10;99.90
12123;DHT22;6125;59.628;17.852;2023-04-09T00:19:53;0.20;99.90
12123;DHT22;6125;59.628;17.852;2023-04-09T00:22:20;0.20;99.90
12123;DHT22;6125;59.628;17.852;2023-04-09T00:24:47;0.20;99.90
12123;DHT22;6125;59.628;17.852;2023-04-09T00:27:16;0.20;99.90
12123;DHT22;6125;59.628;17.852;2023-04-09T00:29:43;0.10;99.90
12123;DHT22;6125;59.628;17.852;2023-04-09T00:32:10;0.10;99.90
12123;DHT22;6125;59.628;17.852;2023-04-09T00:34:37;0.20;99.90
12123;DHT22;6125;59.628;17.852;2023-04-09T00:37:05;0.10;99.90
12123;DHT22;6125;59.628;17.852;2023-04-09T00:39:32;0.20;99.90
12123;DHT22;6125;59.628;17.852;2023-04-09T00:42:00;0.20;99.90
12123;DHT22;6125;59.628;17.852;2023-04-09T00:44:29;0.30;99.90
12123;DHT22;6125;59.628;17.852;2023-04-09T00:46:57;0.30;99.90
12123;DHT22;6125;59.628;17.852;2023-04-09T00:49:25;0.30;99.90
12123;DHT22;6125;59.628;17.852;2023-04-09T00:51:52;0.30;99.90
12123;DHT22;6125;59.628;17.852;2023-04-09T00:54:19;0.30;99.90
12123;DHT22;6125;59.628;17.852;2023-04-09T00:56:46;0.30;99.90
12123;DHT22;6125;59.628;17.852;2023-04-09T00:59:14;0.30;99.90
12123;DHT22;6125;59.628;17.852;2023-04-09T01:01:42;0.20;99.90
12123;DHT22;6125;59.628;17.852;2023-04-09T01:04:10;0.20;99.90
12123;DHT22;6125;59.628;17.852;2023-04-09T01:06:41;0.10;99.90
12123;DHT22;6125;59.628;17.852;2023-04-09T01:09:15;0.10;99.90
12123;DHT22;6125;59.628;17.852;2023-04-09T01:11:54;0.10;99.90
12123;DHT22;6125;59.628;17.852;2023-04-09T01:14:40;0.10;99.90
12123;DHT22;6125;59.628;17.852;2023-04-09T01:17:16;0.10;99.90
12123;DHT22;6125;59.628;17.852;2023-04-09T01:19:50;0.10;99.90
12123;DHT22;6125;59.628;17.852;2023-04-09T01:22:41;0.00;99.90
12123;DHT22;6125;59.628;17.852;2023-04-09T01:25:22;-0.10;99.90
12123;DHT22;6125;59.628;17.852;2023-04-09T01:28:06;-0.10;99.90
12123;DHT22;6125;59.628;17.852;2023-04-09T01:30:36;-0.20;99.90
12123;DHT22;6125;59.628;17.852;2023-04-09T01:33:04;-0.20;99.90
12123;DHT22;6125;59.628;17.852;2023-04-09T01:35:32;-0.20;99.90
12123;DHT22;6125;59.628;17.852;2023-04-09T01:37:59;-0.20;99.90
12123;DHT22;6125;59.628;17.852;2023-04-09T01:40:28;-0.20;99.90
12123;DHT22;6125;59.628;17.852;2023-04-09T01:42:55;-0.20;99.90
12123;DHT22;6125;59.628;17.852;2023-04-09T01:45:25;-0.20;99.90
12123;DHT22;6125;59.628;17.852;2023-04-09T01:47:53;-0.20;99.90
12123;DHT22;6125;59.628;17.852;2023-04-09T01:50:21;-0.20;99.90
12123;DHT22;6125;59.628;17.852;2023-04-09T01:52:48;-0.20;99.90
12123;DHT22;6125;59.628;17.852;2023-04-09T01:55:22;-0.20;99.90
12123;DHT22;6125;59.628;17.852;2023-04-09T01:57:49;-0.30;99.90
12123;DHT22;6125;59.628;17.852;2023-04-09T02:00:17;-0.30;99.90
12123;DHT22;6125;59.628;17.852;2023-04-09T02:02:50;-0.30;99.90
12123;DHT22;6125;59.628;17.852;2023-04-09T02:05:19;-0.30;99.90
12123;DHT22;6125;59.628;17.852;2023-04-09T02:07:53;-0.30;99.90
12123;DHT22;6125;59.628;17.852;2023-04-09T02:10:21;-0.40;99.90
12123;DHT22;6125;59.628;17.852;2023-04-09T02:12:51;-0.40;99.90
12123;DHT22;6125;59.628;17.852;2023-04-09T02:15:19;-0.50;99.90
12123;DHT22;6125;59.628;17.852;2023-04-09T02:17:48;-0.50;99.90
12123;DHT22;6125;59.628;17.852;2023-04-09T02:20:16;-0.60;99.90
12123;DHT22;6125;59.628;17.852;2023-04-09T02:22:43;-0.70;99.90
12123;DHT22;6125;59.628;17.852;2023-04-09T02:25:10;-0.80;99.90
12123;DHT22;6125;59.628;17.852;2023-04-09T02:27:37;-0.80;99.90
12123;DHT22;6125;59.628;17.852;2023-04-09T02:30:05;-0.80;99.90
12123;DHT22;6125;59.628;17.852;2023-04-09T02:32:33;-0.80;99.90
12123;DHT22;6125;59.628;17.852;2023-04-09T02:35:02;-0.80;99.90
12123;DHT22;6125;59.628;17.852;2023-04-09T02:37:29;-0.90;99.90
12123;DHT22;6125;59.628;17.852;2023-04-09T02:39:56;-1.00;99.90
12123;DHT22;6125;59.628;17.852;2023-04-09T02:42:23;-1.00;99.90
12123;DHT22;6125;59.628;17.852;2023-04-09T02:44:50;-0.90;99.90
12123;DHT22;6125;59.628;17.852;2023-04-09T02:47:17;-0.90;99.90
12123;DHT22;6125;59.628;17.852;2023-04-09T02:49:44;-0.90;99.90
12123;DHT22;6125;59.628;17.852;2023-04-09T02:52:12;-1.00;99.90
12123;DHT22;6125;59.628;17.852;2023-04-09T02:54:39;-1.00;99.90
12123;DHT22;6125;59.628;17.852;2023-04-09T02:57:07;-1.00;99.90
12123;DHT22;6125;59.628;17.852;2023-04-09T02:59:34;-1.00;99.90
12123;DHT22;6125;59.628;17.852;2023-04-09T03:02:03;-1.00;99.90
12123;DHT22;6125;59.628;17.852;2023-04-09T03:04:30;-1.00;99.90
12123;DHT22;6125;59.628;17.852;2023-04-09T03:06:57;-1.00;99.90
12123;DHT22;6125;59.628;17.852;2023-04-09T03:09:26;-0.90;99.90
12123;DHT22;6125;59.628;17.852;2023-04-09T03:11:53;-0.90;99.90
12123;DHT22;6125;59.628;17.852;2023-04-09T03:14:22;-0.90;99.90
12123;DHT22;6125;59.628;17.852;2023-04-09T03:16:49;-0.90;99.90
12123;DHT22;6125;59.628;17.852;2023-04-09T03:19:16;-0.80;99.90
12123;DHT22;6125;59.628;17.852;2023-04-09T03:21:43;-0.80;99.90
12123;DHT22;6125;59.628;17.852;2023-04-09T03:24:11;-0.80;99.90
12123;DHT22;6125;59.628;17.852;2023-04-09T03:26:39;-0.80;99.90
12123;DHT22;6125;59.628;17.852;2023-04-09T03:29:06;-0.70;99.90
12123;DHT22;6125;59.628;17.852;2023-04-09T03:31:33;-0.80;99.90
12123;DHT22;6125;59.628;17.852;2023-04-09T03:34:00;-0.80;99.90
12123;DHT22;6125;59.628;17.852;2023-04-09T03:36:27;-0.80;99.90
12123;DHT22;6125;59.628;17.852;2023-04-09T03:38:55;-0.80;99.90
12123;DHT22;6125;59.628;17.852;2023-04-09T03:41:23;-0.80;99.90
12123;DHT22;6125;59.628;17.852;2023-04-09T03:43:51;-0.80;99.90
12123;DHT22;6125;59.628;17.852;2023-04-09T03:46:18;-0.80;99.90
12123;DHT22;6125;59.628;17.852;2023-04-09T03:48:52;-0.80;99.90
12123;DHT22;6125;59.628;17.852;2023-04-09T03:51:19;-0.80;99.90
12123;DHT22;6125;59.628;17.852;2023-04-09T03:53:46;-0.70;99.90
12123;DHT22;6125;59.628;17.852;2023-04-09T03:56:13;-0.70;99.90
12123;DHT22;6125;59.628;17.852;2023-04-09T03:58:40;-0.70;99.90
12123;DHT22;6125;59.628;17.852;2023-04-09T04:01:09;-0.60;99.90
12123;DHT22;6125;59.628;17.852;2023-04-09T04:03:36;-0.60;99.90
12123;DHT22;6125;59.628;17.852;2023-04-09T04:06:03;-0.60;99.90
12123;DHT22;6125;59.628;17.852;2023-04-09T04:08:30;-0.50;99.90
12123;DHT22;6125;59.628;17.852;2023-04-09T04:11:02;-0.50;99.90
12123;DHT22;6125;59.628;17.852;2023-04-09T04:13:29;-0.50;99.90
12123;DHT22;6125;59.628;17.852;2023-04-09T04:15:56;-0.50;99.90
12123;DHT22;6125;59.628;17.852;2023-04-09T04:18:25;-0.40;99.90
12123;DHT22;6125;59.628;17.852;2023-04-09T04:20:52;-0.40;99.90
12123;DHT22;6125;59.628;17.852;2023-04-09T04:23:19;-0.30;99.90
12123;DHT22;6125;59.628;17.852;2023-04-09T04:25:46;-0.30;99.90
12123;DHT22;6125;59.628;17.852;2023-04-09T04:28:13;-0.30;99.90
12123;DHT22;6125;59.628;17.852;2023-04-09T04:30:40;-0.20;99.90
12123;DHT22;6125;59.628;17.852;2023-04-09T04:33:08;-0.20;99.90
12123;DHT22;6125;59.628;17.852;2023-04-09T04:35:36;-0.20;99.90
12123;DHT22;6125;59.628;17.852;2023-04-09T04:38:03;-0.10;99.90
12123;DHT22;6125;59.628;17.852;2023-04-09T04:40:30;0.00;99.90
12123;DHT22;6125;59.628;17.852;2023-04-09T04:42:57;0.10;99.90
12123;DHT22;6125;59.628;17.852;2023-04-09T04:45:24;0.10;99.90
12123;DHT22;6125;59.628;17.852;2023-04-09T04:47:51;0.20;99.90
12123;DHT22;6125;59.628;17.852;2023-04-09T04:50:19;0.30;99.90
12123;DHT22;6125;59.628;17.852;2023-04-09T04:52:47;0.40;99.90
12123;DHT22;6125;59.628;17.852;2023-04-09T04:55:14;0.40;99.90
12123;DHT22;6125;59.628;17.852;2023-04-09T04:57:41;0.50;99.90
12123;DHT22;6125;59.628;17.852;2023-04-09T05:00:09;0.50;99.90
12123;DHT22;6125;59.628;17.852;2023-04-09T05:02:37;0.60;99.90
12123;DHT22;6125;59.628;17.852;2023-04-09T05:05:04;0.70;99.90
12123;DHT22;6125;59.628;17.852;2023-04-09T05:07:32;0.80;99.90
12123;DHT22;6125;59.628;17.852;2023-04-09T05:10:01;0.90;99.90
12123;DHT22;6125;59.628;17.852;2023-04-09T05:12:30;1.00;99.90
12123;DHT22;6125;59.628;17.852;2023-04-09T05:14:57;1.10;99.90
12123;DHT22;6125;59.628;17.852;2023-04-09T05:17:24;1.10;99.90
12123;DHT22;6125;59.628;17.852;2023-04-09T05:19:52;1.20;99.90
12123;DHT22;6125;59.628;17.852;2023-04-09T05:22:19;1.30;99.90
12123;DHT22;6125;59.628;17.852;2023-04-09T05:24:46;1.40;99.90
12123;DHT22;6125;59.628;17.852;2023-04-09T05:27:15;1.40;99.90
12123;DHT22;6125;59.628;17.852;2023-04-09T05:29:44;1.50;99.90
12123;DHT22;6125;59.628;17.852;2023-04-09T05:32:11;1.50;99.90
12123;DHT22;6125;59.628;17.852;2023-04-09T05:34:38;1.60;99.90
12123;DHT22;6125;59.628;17.852;2023-04-09T05:37:05;1.70;99.90
12123;DHT22;6125;59.628;17.852;2023-04-09T05:39:32;1.80;99.90
12123;DHT22;6125;59.628;17.852;2023-04-09T05:41:59;1.90;99.90
12123;DHT22;6125;59.628;17.852;2023-04-09T05:44:28;1.90;99.90
12123;DHT22;6125;59.628;17.852;2023-04-09T05:46:55;2.00;99.90
12123;DHT22;6125;59.628;17.852;2023-04-09T05:49:22;2.10;99.90
12123;DHT22;6125;59.628;17.852;2023-04-09T05:51:49;2.20;99.90
12123;DHT22;6125;59.628;17.852;2023-04-09T05:54:17;2.20;99.90
12123;DHT22;6125;59.628;17.852;2023-04-09T05:56:44;2.30;99.90
12123;DHT22;6125;59.628;17.852;2023-04-09T05:59:11;2.30;99.90
12123;DHT22;6125;59.628;17.852;2023-04-09T06:01:39;2.30;99.90
12123;DHT22;6125;59.628;17.852;2023-04-09T06:04:06;2.30;99.90
12123;DHT22;6125;59.628;17.852;2023-04-09T06:06:33;2.30;99.90
12123;DHT22;6125;59.628;17.852;2023-04-09T06:09:00;2.30;99.90
12123;DHT22;6125;59.628;17.852;2023-04-09T06:11:28;2.40;99.90
12123;DHT22;6125;59.628;17.852;2023-04-09T06:13:55;2.40;99.90
12123;DHT22;6125;59.628;17.852;2023-04-09T06:16:22;2.40;99.90
12123;DHT22;6125;59.628;17.852;2023-04-09T06:18:50;2.40;99.90
12123;DHT22;6125;59.628;17.852;2023-04-09T06:21:19;2.40;99.90
12123;DHT22;6125;59.628;17.852;2023-04-09T06:23:46;2.40;99.90
12123;DHT22;6125;59.628;17.852;2023-04-09T06:26:13;2.40;99.90
12123;DHT22;6125;59.628;17.852;2023-04-09T06:28:40;2.40;99.90
12123;DHT22;6125;59.628;17.852;2023-04-09T06:31:07;2.40;99.90
12123;DHT22;6125;59.628;17.852;2023-04-09T06:33:35;2.40;99.90
12123;DHT22;6125;59.628;17.852;2023-04-09T06:36:03;2.40;99.90
12123;DHT22;6125;59.628;17.852;2023-04-09T06:38:31;2.40;99.90
12123;DHT22;6125;59.628;17.852;2023-04-09T06:40:58;2.40;99.90
12123;DHT22;6125;59.628;17.852;2023-04-09T06:43:25;2.40;99.90
12123;DHT22;6125;59.628;17.852;2023-04-09T06:45:52;2.50;99.90
12123;DHT22;6125;59.628;17.852;2023-04-09T06:48:19;2.50;99.90
12123;DHT22;6125;59.628;17.852;2023-04-09T06:50:46;2.50;99.90
12123;DHT22;6125;59.628;17.852;2023-04-09T06:53:15;2.60;99.90
12123;DHT22;6125;59.628;17.852;2023-04-09T06:55:42;2.70;99.90
12123;DHT22;6125;59.628;17.852;2023-04-09T06:58:09;2.70;99.90
12123;DHT22;6125;59.628;17.852;2023-04-09T07:00:36;2.70;99.90
12123;DHT22;6125;59.628;17.852;2023-04-09T07:03:04;2.70;99.90
12123;DHT22;6125;59.628;17.852;2023-04-09T07:05:33;2.80;99.90
12123;DHT22;6125;59.628;17.852;2023-04-09T07:08:01;2.90;99.90
12123;DHT22;6125;59.628;17.852;2023-04-09T07:10:30;3.00;99.90
12123;DHT22;6125;59.628;17.852;2023-04-09T07:12:57;3.10;99.90
12123;DHT22;6125;59.628;17.852;2023-04-09T07:15:24;3.20;99.90
12123;DHT22;6125;59.628;17.852;2023-04-09T07:17:51;3.30;99.90
12123;DHT22;6125;59.628;17.852;2023-04-09T07:20:18;3.40;99.90
12123;DHT22;6125;59.628;17.852;2023-04-09T07:22:45;3.60;99.90
12123;DHT22;6125;59.628;17.852;2023-04-09T07:25:14;3.70;99.90
12123;DHT22;6125;59.628;17.852;2023-04-09T07:27:42;3.80;99.90
12123;DHT22;6125;59.628;17.852;2023-04-09T07:30:10;3.90;99.90
12123;DHT22;6125;59.628;17.852;2023-04-09T07:32:37;3.90;99.90
12123;DHT22;6125;59.628;17.852;2023-04-09T07:35:07;4.00;99.90
12123;DHT22;6125;59.628;17.852;2023-04-09T07:37:36;4.10;99.90
12123;DHT22;6125;59.628;17.852;2023-04-09T07:40:03;4.20;99.90
12123;DHT22;6125;59.628;17.852;2023-04-09T07:42:30;4.30;99.90
12123;DHT22;6125;59.628;17.852;2023-04-09T07:44:59;4.40;99.90
12123;DHT22;6125;59.628;17.852;2023-04-09T07:47:28;4.50;99.90
12123;DHT22;6125;59.628;17.852;2023-04-09T07:49:55;4.70;99.90
12123;DHT22;6125;59.628;17.852;2023-04-09T07:52:22;4.70;99.90
12123;DHT22;6125;59.628;17.852;2023-04-09T07:54:49;4.90;99.90
12123;DHT22;6125;59.628;17.852;2023-04-09T07:57:16;5.00;99.90
12123;DHT22;6125;59.628;17.852;2023-04-09T07:59:43;5.10;99.90
12123;DHT22;6125;59.628;17.852;2023-04-09T08:02:12;5.20;99.90
12123;DHT22;6125;59.628;17.852;2023-04-09T08:04:40;5.30;99.90
12123;DHT22;6125;59.628;17.852;2023-04-09T08:07:07;5.40;99.90
12123;DHT22;6125;59.628;17.852;2023-04-09T08:09:34;5.50;99.90
12123;DHT22;6125;59.628;17.852;2023-04-09T08:12:01;5.60;99.90
12123;DHT22;6125;59.628;17.852;2023-04-09T08:14:28;5.70;99.90
12123;DHT22;6125;59.628;17.852;2023-04-09T08:16:55;5.90;99.90
12123;DHT22;6125;59.628;17.852;2023-04-09T08:19:24;6.00;99.90
12123;DHT22;6125;59.628;17.852;2023-04-09T08:21:51;6.10;99.90
12123;DHT22;6125;59.628;17.852;2023-04-09T08:24:18;6.30;99.90
12123;DHT22;6125;59.628;17.852;2023-04-09T08:26:45;6.40;99.90
12123;DHT22;6125;59.628;17.852;2023-04-09T08:29:13;6.60;99.90
12123;DHT22;6125;59.628;17.852;2023-04-09T08:31:40;6.80;99.90
12123;DHT22;6125;59.628;17.852;2023-04-09T08:34:08;6.90;99.90
12123;DHT22;6125;59.628;17.852;2023-04-09T08:36:36;7.20;99.90
12123;DHT22;6125;59.628;17.852;2023-04-09T08:39:04;7.40;99.90
12123;DHT22;6125;59.628;17.852;2023-04-09T08:41:31;7.40;99.90
12123;DHT22;6125;59.628;17.852;2023-04-09T08:43:58;7.50;99.90
12123;DHT22;6125;59.628;17.852;2023-04-09T08:46:25;7.70;99.90
12123;DHT22;6125;59.628;17.852;2023-04-09T08:48:53;7.80;99.90
12123;DHT22;6125;59.628;17.852;2023-04-09T08:51:21;7.90;99.90
12123;DHT22;6125;59.628;17.852;2023-04-09T08:53:55;8.10;99.90
12123;DHT22;6125;59.628;17.852;2023-04-09T08:56:22;8.20;99.90
12123;DHT22;6125;59.628;17.852;2023-04-09T08:58:50;8.30;99.90
12123;DHT22;6125;59.628;17.852;2023-04-09T09:01:19;8.40;99.90
12123;DHT22;6125;59.628;17.852;2023-04-09T09:03:54;8.50;99.90
12123;DHT22;6125;59.628;17.852;2023-04-09T09:06:22;8.70;99.90
12123;DHT22;6125;59.628;17.852;2023-04-09T09:09:06;8.70;99.90
12123;DHT22;6125;59.628;17.852;2023-04-09T09:11:34;8.80;99.90
12123;DHT22;6125;59.628;17.852;2023-04-09T09:14:03;8.80;99.90
12123;DHT22;6125;59.628;17.852;2023-04-09T09:16:32;8.90;99.90
12123;DHT22;6125;59.628;17.852;2023-04-09T09:19:00;9.00;99.90
12123;DHT22;6125;59.628;17.852;2023-04-09T09:21:28;9.00;99.90
12123;DHT22;6125;59.628;17.852;2023-04-09T09:23:56;9.10;99.90
12123;DHT22;6125;59.628;17.852;2023-04-09T09:26:26;9.20;99.90
12123;DHT22;6125;59.628;17.852;2023-04-09T09:28:53;9.30;99.90
12123;DHT22;6125;59.628;17.852;2023-04-09T09:31:23;9.30;99.90
12123;DHT22;6125;59.628;17.852;2023-04-09T09:33:51;9.40;99.90
12123;DHT22;6125;59.628;17.852;2023-04-09T09:36:31;9.30;99.90
12123;DHT22;6125;59.628;17.852;2023-04-09T09:38:59;9.40;99.90
12123;DHT22;6125;59.628;17.852;2023-04-09T09:41:30;9.40;99.90
12123;DHT22;6125;59.628;17.852;2023-04-09T09:43:57;9.50;99.90
12123;DHT22;6125;59.628;17.852;2023-04-09T09:46:25;9.60;99.90
12123;DHT22;6125;59.628;17.852;2023-04-09T09:48:53;9.70;99.90
12123;DHT22;6125;59.628;17.852;2023-04-09T09:51:24;9.60;99.90
12123;DHT22;6125;59.628;17.852;2023-04-09T09:53:54;9.60;99.90
12123;DHT22;6125;59.628;17.852;2023-04-09T09:56:23;9.60;99.90
12123;DHT22;6125;59.628;17.852;2023-04-09T09:58:58;9.70;99.90
12123;DHT22;6125;59.628;17.852;2023-04-09T10:01:28;9.80;99.90
12123;DHT22;6125;59.628;17.852;2023-04-09T10:03:59;9.80;99.90
12123;DHT22;6125;59.628;17.852;2023-04-09T10:06:27;9.90;99.90
12123;DHT22;6125;59.628;17.852;2023-04-09T10:08:57;10.10;99.90
12123;DHT22;6125;59.628;17.852;2023-04-09T10:11:24;10.30;99.90
12123;DHT22;6125;59.628;17.852;2023-04-09T10:13:56;10.20;99.90
12123;DHT22;6125;59.628;17.852;2023-04-09T10:16:24;10.20;99.90
12123;DHT22;6125;59.628;17.852;2023-04-09T10:18:52;10.20;99.90
12123;DHT22;6125;59.628;17.852;2023-04-09T10:21:27;10.30;99.90
12123;DHT22;6125;59.628;17.852;2023-04-09T10:23:56;10.40;99.90
12123;DHT22;6125;59.628;17.852;2023-04-09T10:26:24;10.50;99.90
12123;DHT22;6125;59.628;17.852;2023-04-09T10:29:07;10.60;99.90
12123;DHT22;6125;59.628;17.852;2023-04-09T10:31:47;10.70;99.90
12123;DHT22;6125;59.628;17.852;2023-04-09T10:34:15;10.70;99.90
12123;DHT22;6125;59.628;17.852;2023-04-09T10:36:43;10.80;99.90
12123;DHT22;6125;59.628;17.852;2023-04-09T10:39:11;10.90;99.90
12123;DHT22;6125;59.628;17.852;2023-04-09T10:41:39;11.00;99.90
12123;DHT22;6125;59.628;17.852;2023-04-09T10:44:19;11.00;99.90
12123;DHT22;6125;59.628;17.852;2023-04-09T10:46:46;11.10;99.90
12123;DHT22;6125;59.628;17.852;2023-04-09T10:49:16;11.00;99.90
12123;DHT22;6125;59.628;17.852;2023-04-09T10:51:53;11.00;99.90
12123;DHT22;6125;59.628;17.852;2023-04-09T10:54:41;10.90;99.90
12123;DHT22;6125;59.628;17.852;2023-04-09T10:57:18;11.00;99.90
12123;DHT22;6125;59.628;17.852;2023-04-09T10:59:49;11.20;99.90
12123;DHT22;6125;59.628;17.852;2023-04-09T11:02:58;11.30;99.90
12123;DHT22;6125;59.628;17.852;2023-04-09T11:05:32;11.10;99.90
12123;DHT22;6125;59.628;17.852;2023-04-09T11:08:07;10.90;99.90
12123;DHT22;6125;59.628;17.852;2023-04-09T11:10:35;11.00;99.90
12123;DHT22;6125;59.628;17.852;2023-04-09T11:13:03;11.20;99.90
12123;DHT22;6125;59.628;17.852;2023-04-09T11:15:34;11.40;99.90
12123;DHT22;6125;59.628;17.852;2023-04-09T11:18:02;11.40;99.90
12123;DHT22;6125;59.628;17.852;2023-04-09T11:20:33;11.40;99.90
12123;DHT22;6125;59.628;17.852;2023-04-09T11:23:00;11.40;99.90
12123;DHT22;6125;59.628;17.852;2023-04-09T11:25:29;11.30;99.90
12123;DHT22;6125;59.628;17.852;2023-04-09T11:27:57;11.20;99.90
12123;DHT22;6125;59.628;17.852;2023-04-09T11:30:24;11.10;99.90
12123;DHT22;6125;59.628;17.852;2023-04-09T11:32:53;10.90;99.90
12123;DHT22;6125;59.628;17.852;2023-04-09T11:35:21;10.90;99.90
12123;DHT22;6125;59.628;17.852;2023-04-09T11:37:49;10.90;99.90
12123;DHT22;6125;59.628;17.852;2023-04-09T11:40:19;11.10;99.90
12123;DHT22;6125;59.628;17.852;2023-04-09T11:42:50;11.20;99.90
12123;DHT22;6125;59.628;17.852;2023-04-09T11:45:19;11.40;99.90
12123;DHT22;6125;59.628;17.852;2023-04-09T11:47:47;11.50;99.90
12123;DHT22;6125;59.628;17.852;2023-04-09T11:50:16;11.60;99.90
12123;DHT22;6125;59.628;17.852;2023-04-09T11:52:44;11.70;99.90
12123;DHT22;6125;59.628;17.852;2023-04-09T11:55:11;11.70;99.90
12123;DHT22;6125;59.628;17.852;2023-04-09T11:57:40;11.80;99.70
12123;DHT22;6125;59.628;17.852;2023-04-09T12:00:09;11.70;99.90
12123;DHT22;6125;59.628;17.852;2023-04-09T12:02:39;11.40;99.90
12123;DHT22;6125;59.628;17.852;2023-04-09T12:05:09;11.30;99.90
12123;DHT22;6125;59.628;17.852;2023-04-09T12:07:38;11.30;99.90
12123;DHT22;6125;59.628;17.852;2023-04-09T12:10:06;11.60;99.90
12123;DHT22;6125;59.628;17.852;2023-04-09T12:12:43;11.90;99.90
12123;DHT22;6125;59.628;17.852;2023-04-09T12:15:20;12.10;99.90
12123;DHT22;6125;59.628;17.852;2023-04-09T12:17:49;12.30;99.90
12123;DHT22;6125;59.628;17.852;2023-04-09T12:20:30;12.50;99.90
12123;DHT22;6125;59.628;17.852;2023-04-09T12:22:59;12.60;99.90
12123;DHT22;6125;59.628;17.852;2023-04-09T12:25:28;12.50;99.90
12123;DHT22;6125;59.628;17.852;2023-04-09T12:27:56;12.20;99.90
12123;DHT22;6125;59.628;17.852;2023-04-09T12:30:23;11.90;99.70
12123;DHT22;6125;59.628;17.852;2023-04-09T12:32:51;11.90;99.80
12123;DHT22;6125;59.628;17.852;2023-04-09T12:35:19;11.80;99.90
12123;DHT22;6125;59.628;17.852;2023-04-09T12:37:53;11.90;99.90
12123;DHT22;6125;59.628;17.852;2023-04-09T12:40:21;12.10;99.90
12123;DHT22;6125;59.628;17.852;2023-04-09T12:42:48;12.20;99.90
12123;DHT22;6125;59.628;17.852;2023-04-09T12:45:17;12.40;99.90
12123;DHT22;6125;59.628;17.852;2023-04-09T12:47:45;12.60;98.80
12123;DHT22;6125;59.628;17.852;2023-04-09T12:50:13;12.60;97.20
12123;DHT22;6125;59.628;17.852;2023-04-09T12:52:41;12.50;96.60
12123;DHT22;6125;59.628;17.852;2023-04-09T12:55:09;12.30;96.40
12123;DHT22;6125;59.628;17.852;2023-04-09T12:57:38;12.20;96.40
12123;DHT22;6125;59.628;17.852;2023-04-09T13:00:06;12.20;97.60
12123;DHT22;6125;59.628;17.852;2023-04-09T13:02:34;12.30;97.00
12123;DHT22;6125;59.628;17.852;2023-04-09T13:05:01;12.40;97.20
12123;DHT22;6125;59.628;17.852;2023-04-09T13:07:29;12.60;96.20
12123;DHT22;6125;59.628;17.852;2023-04-09T13:09:56;12.70;97.10
12123;DHT22;6125;59.628;17.852;2023-04-09T13:12:24;12.80;95.20
12123;DHT22;6125;59.628;17.852;2023-04-09T13:14:53;12.80;95.30
12123;DHT22;6125;59.628;17.852;2023-04-09T13:17:21;12.60;94.90
12123;DHT22;6125;59.628;17.852;2023-04-09T13:19:49;12.50;94.50
12123;DHT22;6125;59.628;17.852;2023-04-09T13:22:17;12.20;94.30
12123;DHT22;6125;59.628;17.852;2023-04-09T13:24:44;12.10;94.80
12123;DHT22;6125;59.628;17.852;2023-04-09T13:27:11;12.00;94.20
12123;DHT22;6125;59.628;17.852;2023-04-09T13:29:38;12.10;94.50
12123;DHT22;6125;59.628;17.852;2023-04-09T13:32:07;12.20;94.40
12123;DHT22;6125;59.628;17.852;2023-04-09T13:34:35;12.30;94.50
12123;DHT22;6125;59.628;17.852;2023-04-09T13:37:02;12.40;94.60
12123;DHT22;6125;59.628;17.852;2023-04-09T13:39:29;12.50;94.30
12123;DHT22;6125;59.628;17.852;2023-04-09T13:41:57;12.60;94.10
12123;DHT22;6125;59.628;17.852;2023-04-09T13:44:24;12.40;93.70
12123;DHT22;6125;59.628;17.852;2023-04-09T13:46:52;12.20;93.80
12123;DHT22;6125;59.628;17.852;2023-04-09T13:49:20;11.80;93.10
12123;DHT22;6125;59.628;17.852;2023-04-09T13:51:48;11.60;93.40
12123;DHT22;6125;59.628;17.852;2023-04-09T13:54:15;11.60;93.30
12123;DHT22;6125;59.628;17.852;2023-04-09T13:56:43;11.40;93.20
12123;DHT22;6125;59.628;17.852;2023-04-09T13:59:10;11.20;93.40
12123;DHT22;6125;59.628;17.852;2023-04-09T14:01:37;11.20;93.40
12123;DHT22;6125;59.628;17.852;2023-04-09T14:04:04;11.20;93.60
12123;DHT22;6125;59.628;17.852;2023-04-09T14:06:33;11.00;93.50
12123;DHT22;6125;59.628;17.852;2023-04-09T14:09:00;11.10;93.70
12123;DHT22;6125;59.628;17.852;2023-04-09T14:11:27;11.30;94.20
12123;DHT22;6125;59.628;17.852;2023-04-09T14:13:54;11.80;94.90
12123;DHT22;6125;59.628;17.852;2023-04-09T14:16:21;12.30;94.00
12123;DHT22;6125;59.628;17.852;2023-04-09T14:18:48;12.80;93.40
12123;DHT22;6125;59.628;17.852;2023-04-09T14:21:15;13.40;93.90
12123;DHT22;6125;59.628;17.852;2023-04-09T14:23:44;13.60;94.60
12123;DHT22;6125;59.628;17.852;2023-04-09T14:26:11;13.80;96.60
12123;DHT22;6125;59.628;17.852;2023-04-09T14:28:45;13.60;97.50
12123;DHT22;6125;59.628;17.852;2023-04-09T14:31:12;13.90;98.10
12123;DHT22;6125;59.628;17.852;2023-04-09T14:33:39;14.40;98.20
12123;DHT22;6125;59.628;17.852;2023-04-09T14:36:07;14.70;98.40
12123;DHT22;6125;59.628;17.852;2023-04-09T14:38:34;14.70;98.10
12123;DHT22;6125;59.628;17.852;2023-04-09T14:41:03;14.40;98.40
12123;DHT22;6125;59.628;17.852;2023-04-09T14:43:31;14.00;98.70
12123;DHT22;6125;59.628;17.852;2023-04-09T14:45:58;14.00;98.60
12123;DHT22;6125;59.628;17.852;2023-04-09T14:48:25;13.70;98.00
12123;DHT22;6125;59.628;17.852;2023-04-09T14:50:52;13.60;97.70
12123;DHT22;6125;59.628;17.852;2023-04-09T14:53:19;13.40;97.30
12123;DHT22;6125;59.628;17.852;2023-04-09T14:55:46;12.90;97.10
12123;DHT22;6125;59.628;17.852;2023-04-09T14:58:15;12.50;97.60
12123;DHT22;6125;59.628;17.852;2023-04-09T15:00:42;12.10;98.00
12123;DHT22;6125;59.628;17.852;2023-04-09T15:03:09;12.10;98.40
12123;DHT22;6125;59.628;17.852;2023-04-09T15:05:36;12.00;98.80
12123;DHT22;6125;59.628;17.852;2023-04-09T15:08:04;12.00;99.40
12123;DHT22;6125;59.628;17.852;2023-04-09T15:10:31;12.10;99.70
12123;DHT22;6125;59.628;17.852;2023-04-09T15:12:58;12.40;99.50
12123;DHT22;6125;59.628;17.852;2023-04-09T15:15:26;12.60;99.40
12123;DHT22;6125;59.628;17.852;2023-04-09T15:17:54;12.80;99.60
12123;DHT22;6125;59.628;17.852;2023-04-09T15:20:21;13.00;98.50
12123;DHT22;6125;59.628;17.852;2023-04-09T15:22:48;13.10;98.30
12123;DHT22;6125;59.628;17.852;2023-04-09T15:25:23;13.10;98.20
12123;DHT22;6125;59.628;17.852;2023-04-09T15:27:50;13.00;97.90
12123;DHT22;6125;59.628;17.852;2023-04-09T15:30:18;13.00;98.10
12123;DHT22;6125;59.628;17.852;2023-04-09T15:32:46;13.00;98.20
12123;DHT22;6125;59.628;17.852;2023-04-09T15:35:13;12.70;96.00
12123;DHT22;6125;59.628;17.852;2023-04-09T15:37:45;12.30;96.40
12123;DHT22;6125;59.628;17.852;2023-04-09T15:40:12;12.00;96.70
12123;DHT22;6125;59.628;17.852;2023-04-09T15:42:39;11.70;97.00
12123;DHT22;6125;59.628;17.852;2023-04-09T15:45:07;11.60;97.50